Airfield :
LOGIN :

Register | Disclaimer

   EN    FR    IT 

 










Legend :    VFR   Marginal VFR   IFR   Intensive IFR   Very Intensive IFR
Visi :
Ceiling :
>= 8 km
>= 3000ft
5 to 8 km
1000 to 3000 ft
1500m to 5 km
500 to 1000 ft
800 to 1500m
200 to 500 ft
< 800m
< 200 ft
Symbols :   Thunderstorms  Fog  Heavy snow  Heavy precipitations  Wind > 20 kt
SIGMETs :     Misc.  Thunderstorms  Icing  Turbulence  Mountain Waves  Volcanic Ashes







- Airport Elevation : 755 ft
- IATA code : DRS


EDDC - Dresden Klotzsche

CURRENT METAR :
  • 220120Z 31013KT 2000 -DZRA BR SCT002 OVC004 07/07 Q1024

EXPIRED METARs :
  • 220050Z 30012KT 2200 -DZRA BR OVC003 07/07 Q1024
  • 220020Z 29011KT 260V330 2300 -RA BR OVC004 07/07 Q1024
  • 212350Z 29011KT 260V330 2500 -RA BR OVC004 07/07 Q1024
  • 212320Z 29010KT 250V320 2700 -RA BR OVC005 07/07 Q1024 RERA
  • 212250Z 29010KT 260V320 3000 RA BR SCT004 OVC006 07/07 Q1024

TAF TAF EDDC
Valid from the 22 at 00:00 until the 23 at 00:00 UTC


212300Z 2200/2224 30009KT 5000 -DZ BR BKN006
BECMG 2201/2205 2000 -DZ BKN003
BECMG 2207/2209 01008KT 4500 -DZ BKN006
BECMG 2209/2212 9999 SCT015
BECMG 2214/2216 07007KT
No reported NOTAMs for that airfield.



MET'MAP, your aeronautical weather chart ! - Copyright ORBIFLY December 2007 - Disclaimer

ORBIFLY MET'MAP TEAM :

Programming & Development : Alexandra Zaïnal
Concept & Development : Baudouin d'Aumeries
Co-Development & Prog : Marc-Olivier Méhu
Technical & hardware support : Manuel Goepfert

Contact : metmap@orbifly.com




SOURCES & CREDITS :

   NOAA